Time;durP1;ratioP1;P1;durP2;ratioP2;P2;SDS_P1;SDS_P2;PMS_P1;PMS_P2;Temp;Humidity;BMP_temperature;BMP_pressure;BME280_temperature;BME280_humidity;BME280_pressure;Samples;Min_cycle;Max_cycle;Signal;HPM_P1;HPM_P2
2024/03/22 00:01:11;;;;;;;47.70;31.42;;;;;;;;;;5071119;28;20043;-71
2024/03/22 00:04:15;;;;;;;49.00;31.48;;;;;;;;;;5070879;28;20055;-71
2024/03/22 00:07:19;;;;;;;45.42;28.52;;;;;;;;;;5070869;28;20044;-71
2024/03/22 00:10:23;;;;;;;42.78;27.40;;;;;;;;;;5071259;28;20440;-71
2024/03/22 00:13:27;;;;;;;42.45;26.35;;;;;;;;;;5071181;28;20047;-71
2024/03/22 00:16:32;;;;;;;41.10;24.42;;;;;;;;;;5071359;28;20088;-71
2024/03/22 00:19:36;;;;;;;41.05;24.02;;;;;;;;;;5071000;28;20503;-71
2024/03/22 00:22:41;;;;;;;38.05;24.58;;;;;;;;;;5071113;28;20055;-71
2024/03/22 00:25:45;;;;;;;33.50;23.23;;;;;;;;;;5070761;28;20051;-71
2024/03/22 00:28:49;;;;;;;34.10;23.17;;;;;;;;;;5058657;28;20599;-71
2024/03/22 00:31:53;;;;;;;31.50;21.52;;;;;;;;;;5070509;28;20063;-71
2024/03/22 00:35:00;;;;;;;36.83;22.17;;;;;;;;;;5047452;28;20043;-71
2024/03/22 00:38:05;;;;;;;39.22;21.23;;;;;;;;;;5070455;28;20048;-71
2024/03/22 00:41:09;;;;;;;31.33;20.30;;;;;;;;;;5070979;28;20047;-71
2024/03/22 00:44:14;;;;;;;34.25;22.15;;;;;;;;;;5070794;28;20055;-71
2024/03/22 00:47:18;;;;;;;51.22;24.20;;;;;;;;;;5070036;28;20047;-71
2024/03/22 00:50:23;;;;;;;36.65;23.35;;;;;;;;;;5070994;28;20407;-72
2024/03/22 00:53:27;;;;;;;34.15;22.05;;;;;;;;;;5073318;28;20052;-71
2024/03/22 00:56:32;;;;;;;37.90;21.33;;;;;;;;;;5074602;28;20048;-71
2024/03/22 00:59:36;;;;;;;33.25;21.38;;;;;;;;;;5074595;28;20035;-71
2024/03/22 01:02:40;;;;;;;36.58;23.05;;;;;;;;;;5074741;28;20051;-71
2024/03/22 01:05:45;;;;;;;39.70;26.80;;;;;;;;;;5074235;28;20507;-71
2024/03/22 01:08:51;;;;;;;36.78;26.20;;;;;;;;;;5074728;28;20043;-71
2024/03/22 01:11:55;;;;;;;43.28;27.30;;;;;;;;;;5074365;28;20055;-71
2024/03/22 01:15:00;;;;;;;40.20;27.25;;;;;;;;;;5074381;28;20408;-71
2024/03/22 01:18:04;;;;;;;43.53;28.73;;;;;;;;;;5074278;28;20055;-71
2024/03/22 01:21:08;;;;;;;40.03;27.30;;;;;;;;;;5074376;28;20044;-71
2024/03/22 01:24:12;;;;;;;38.38;27.23;;;;;;;;;;5074219;28;20051;-71
2024/03/22 01:27:17;;;;;;;42.40;26.70;;;;;;;;;;5073832;28;20048;-71
2024/03/22 01:30:21;;;;;;;40.10;26.80;;;;;;;;;;5074049;28;20052;-71
2024/03/22 01:33:25;;;;;;;39.60;26.25;;;;;;;;;;5073171;28;20038;-71
2024/03/22 01:36:30;;;;;;;42.08;26.23;;;;;;;;;;5073097;28;20043;-71
2024/03/22 01:39:34;;;;;;;39.60;26.90;;;;;;;;;;5073239;28;20051;-71
2024/03/22 01:42:38;;;;;;;39.75;25.85;;;;;;;;;;5073174;28;20051;-71
2024/03/22 01:45:43;;;;;;;42.05;27.75;;;;;;;;;;5073694;28;20049;-71
2024/03/22 01:48:50;;;;;;;38.90;25.27;;;13.60;99.60;;;;;;5073901;28;20039;-71
2024/03/22 01:51:54;;;;;;;38.92;25.30;;;;;;;;;;5073851;28;20048;-71
2024/03/22 01:54:59;;;;;;;34.58;25.73;;;;;;;;;;5073944;28;20047;-71
2024/03/22 01:58:04;;;;;;;43.05;25.15;;;;;;;;;;5073630;28;20048;-71
2024/03/22 02:01:08;;;;;;;41.45;26.35;;;;;;;;;;5073445;28;20048;-71
2024/03/22 02:04:14;;;;;;;34.53;24.88;;;;;;;;;;5072000;28;20056;-71
2024/03/22 02:07:18;;;;;;;37.63;25.50;;;;;;;;;;5073156;28;20036;-72
2024/03/22 02:10:23;;;;;;;36.97;25.48;;;;;;;;;;5073123;28;20511;-71
2024/03/22 02:13:27;;;;;;;42.42;25.75;;;;;;;;;;5073508;28;20055;-71
2024/03/22 02:16:31;;;;;;;38.67;25.27;;;;;;;;;;5073211;28;20048;-71
2024/03/22 02:19:35;;;;;;;41.15;25.38;;;;;;;;;;5072542;28;20052;-71
2024/03/22 02:22:40;;;;;;;37.22;25.33;;;;;;;;;;5073278;28;20130;-71
2024/03/22 02:25:44;;;;;;;36.70;25.63;;;;;;;;;;5072686;28;20059;-71
2024/03/22 02:28:48;;;;;;;37.75;25.58;;;;;;;;;;5072808;28;20502;-71
2024/03/22 02:31:53;;;;;;;36.05;24.48;;;14.00;99.60;;;;;;5073045;28;20040;-71
2024/03/22 02:34:58;;;;;;;33.53;24.35;;;;;;;;;;5072096;28;20059;-71
2024/03/22 02:38:02;;;;;;;38.08;24.75;;;;;;;;;;5073140;28;20388;-71
2024/03/22 02:41:06;;;;;;;34.70;23.98;;;;;;;;;;5072683;28;20047;-71
2024/03/22 02:44:10;;;;;;;32.03;23.70;;;;;;;;;;5072954;28;20106;-71
2024/03/22 02:47:15;;;;;;;35.70;24.65;;;;;;;;;;5072919;28;20051;-71
2024/03/22 02:50:19;;;;;;;37.10;22.45;;;;;;;;;;5071789;28;20039;-71
2024/03/22 02:53:23;;;;;;;32.63;22.33;;;;;;;;;;5072556;28;20052;-71
2024/03/22 02:56:28;;;;;;;31.60;20.38;;;;;;;;;;5072879;28;20056;-71
2024/03/22 02:59:32;;;;;;;32.53;20.10;;;13.90;99.60;;;;;;5072392;28;20043;-71
2024/03/22 03:02:37;;;;;;;36.25;21.25;;;;;;;;;;5072278;28;20089;-71
2024/03/22 03:05:42;;;;;;;30.75;19.73;;;13.80;99.90;;;;;;5072239;28;20052;-71
2024/03/22 03:08:46;;;;;;;29.30;18.63;;;;;;;;;;5072442;28;20066;-71
2024/03/22 03:11:50;;;;;;;27.60;18.20;;;;;;;;;;5072540;28;20040;-71
2024/03/22 03:14:58;;;;;;;30.65;19.02;;;;;;;;;;5072191;28;20396;-71
2024/03/22 03:18:02;;;;;;;28.23;20.55;;;;;;;;;;5072329;28;20423;-71
2024/03/22 03:21:06;;;;;;;33.17;19.95;;;;;;;;;;5072333;28;20039;-71
2024/03/22 03:24:13;;;;;;;29.98;19.05;;;13.80;99.90;;;;;;5072282;28;20047;-71
2024/03/22 03:27:17;;;;;;;31.50;20.63;;;13.60;99.90;;;;;;5071760;28;20064;-71
2024/03/22 03:30:21;;;;;;;33.85;21.13;;;;;;;;;;5071043;28;20047;-71
2024/03/22 03:33:25;;;;;;;31.38;21.13;;;;;;;;;;5071746;28;20062;-71
2024/03/22 03:36:30;;;;;;;30.13;19.63;;;;;;;;;;5071716;28;20051;-71
2024/03/22 03:39:34;;;;;;;31.98;18.60;;;;;;;;;;5071716;28;20047;-71
2024/03/22 03:42:38;;;;;;;30.33;16.33;;;13.50;99.90;;;;;;5070884;28;20051;-70
2024/03/22 03:45:42;;;;;;;25.73;16.08;;;13.50;99.90;;;;;;5071439;28;20059;-71
2024/03/22 03:48:46;;;;;;;20.42;14.52;;;12.70;99.90;;;;;;5071554;28;20107;-71
2024/03/22 03:51:51;;;;;;;21.92;14.88;;;13.50;99.90;;;;;;5071369;28;20043;-71
2024/03/22 03:54:55;;;;;;;23.52;15.13;;;13.50;99.90;;;;;;5071269;28;20047;-71
2024/03/22 03:57:59;;;;;;;25.33;15.43;;;;;;;;;;5071404;28;20373;-71
2024/03/22 04:01:07;;;;;;;22.40;13.93;;;13.40;99.90;;;;;;5071465;28;20052;-71
2024/03/22 04:04:12;;;;;;;20.90;14.30;;;;;;;;;;5071265;28;20063;-71
2024/03/22 04:07:15;;;;;;;23.17;14.10;;;13.50;99.90;;;;;;5071172;28;20051;-71
2024/03/22 04:10:21;;;;;;;19.92;14.57;;;;;;;;;;5070411;28;20043;-71
2024/03/22 04:13:26;;;;;;;23.05;13.93;;;13.60;99.90;;;;;;5071406;28;20119;-71
2024/03/22 04:16:30;;;;;;;22.63;13.98;;;;;;;;;;5071275;28;20153;-71
2024/03/22 04:19:34;;;;;;;19.50;12.85;;;;;;;;;;5071076;28;20510;-71
2024/03/22 04:22:39;;;;;;;20.88;13.10;;;;;;;;;;5071196;28;20040;-71
2024/03/22 04:25:55;;;;;;;22.55;13.90;;;13.80;99.90;;;;;;5070662;28;20055;-71
2024/03/22 04:28:59;;;;;;;19.33;14.20;;;;;;;;;;5070238;28;20051;-71
2024/03/22 04:32:03;;;;;;;20.33;13.55;;;;;;;;;;5070745;28;20052;-71
2024/03/22 04:35:07;;;;;;;24.15;13.73;;;;;;;;;;5071205;28;20102;-71
2024/03/22 04:38:12;;;;;;;23.05;14.32;;;;;;;;;;5071124;28;20044;-71
2024/03/22 04:41:16;;;;;;;19.15;14.10;;;;;;;;;;5071093;28;20499;-71
2024/03/22 04:44:20;;;;;;;25.73;15.38;;;;;;;;;;5070092;28;20067;-71
2024/03/22 04:47:24;;;;;;;22.42;13.05;;;13.30;99.90;;;;;;5069975;28;20047;-71
2024/03/22 04:50:28;;;;;;;25.00;13.57;;;;;;;;;;5069606;28;20035;-71
2024/03/22 04:53:33;;;;;;;21.80;14.07;;;;;;;;;;5069762;28;20044;-71
2024/03/22 04:56:38;;;;;;;24.33;13.02;;;;;;;;;;5070424;28;20043;-71
2024/03/22 04:59:42;;;;;;;17.73;12.48;;;;;;;;;;5069724;28;20052;-71
2024/03/22 05:02:47;;;;;;;23.00;13.55;;;;;;;;;;5070673;28;20055;-71
2024/03/22 05:05:51;;;;;;;27.15;15.07;;;;;;;;;;5070402;28;20075;-71
2024/03/22 05:08:56;;;;;;;28.27;13.75;;;;;;;;;;5070759;28;20051;-71
2024/03/22 05:12:00;;;;;;;23.98;13.32;;;;;;;;;;5070721;28;20047;-71
2024/03/22 05:15:05;;;;;;;20.70;13.50;;;14.10;99.90;;;;;;5070384;28;20059;-71
2024/03/22 05:18:09;;;;;;;23.10;13.15;;;;;;;;;;5070562;28;20149;-71
2024/03/22 05:21:16;;;;;;;18.60;12.75;;;;;;;;;;5069569;28;20047;-71
2024/03/22 05:24:21;;;;;;;23.08;14.10;;;;;;;;;;5070152;28;20519;-71
2024/03/22 05:27:25;;;;;;;24.60;13.52;;;;;;;;;;5069136;28;20059;-71
2024/03/22 05:30:30;;;;;;;24.52;14.27;;;;;;;;;;5070189;28;20579;-71
2024/03/22 05:33:34;;;;;;;28.27;15.02;;;;;;;;;;5070496;28;20047;-71
2024/03/22 05:36:38;;;;;;;21.67;13.40;;;;;;;;;;5070349;28;20043;-71
2024/03/22 05:39:43;;;;;;;25.88;14.38;;;;;;;;;;5073096;28;20051;-71
2024/03/22 05:42:47;;;;;;;24.45;14.30;;;;;;;;;;5074185;28;20048;-71
2024/03/22 05:45:52;;;;;;;23.40;14.65;;;;;;;;;;5073818;28;20060;-71
2024/03/22 05:48:58;;;;;;;25.63;15.25;;;13.80;99.90;;;;;;5074147;28;20402;-71
2024/03/22 05:52:02;;;;;;;22.80;13.82;;;;;;;;;;5074099;28;20047;-71
2024/03/22 05:55:08;;;;;;;22.70;14.65;;;;;;;;;;5073743;28;20043;-71
2024/03/22 05:58:12;;;;;;;19.35;12.90;;;;;;;;;;5073836;28;20051;-71
2024/03/22 06:01:16;;;;;;;26.00;14.40;;;;;;;;;;5073456;28;20052;-71
2024/03/22 06:04:21;;;;;;;27.60;13.80;;;;;;;;;;5073422;28;20059;-71
2024/03/22 06:07:25;;;;;;;23.80;14.07;;;;;;;;;;5073133;28;20400;-71
2024/03/22 06:10:30;;;;;;;24.83;13.27;;;;;;;;;;5073200;28;20044;-71
2024/03/22 06:13:36;;;;;;;21.65;13.45;;;;;;;;;;5073569;28;20515;-71
2024/03/22 06:16:40;;;;;;;25.67;14.23;;;;;;;;;;5073028;28;20043;-71
2024/03/22 06:19:44;;;;;;;25.67;14.23;;;;;;;;;;5073194;28;20059;-71
2024/03/22 06:22:49;;;;;;;38.90;14.88;;;;;;;;;;5073140;28;20392;-71
2024/03/22 06:25:53;;;;;;;31.30;14.30;;;14.00;99.90;;;;;;5072915;28;20059;-71
2024/03/22 06:28:58;;;;;;;35.17;15.05;;;;;;;;;;5073339;28;20043;-71
2024/03/22 06:32:03;;;;;;;24.50;13.55;;;;;;;;;;5073112;28;20071;-71
2024/03/22 06:35:07;;;;;;;24.05;13.48;;;;;;;;;;5073130;28;20388;-71
2024/03/22 06:38:11;;;;;;;20.55;12.27;;;;;;;;;;5072150;28;20063;-71
2024/03/22 06:41:16;;;;;;;25.65;11.77;;;14.30;99.90;;;;;;5072897;28;20036;-72
2024/03/22 06:44:20;;;;;;;26.02;12.85;;;;;;;;;;5071658;28;20052;-71
2024/03/22 06:47:24;;;;;;;28.52;13.15;;;;;;;;;;5072867;28;20047;-71
2024/03/22 06:50:29;;;;;;;31.27;12.70;;;;;;;;;;5071821;28;20063;-72
2024/03/22 06:53:33;;;;;;;25.42;11.80;;;;;;;;;;5072866;28;20043;-72
2024/03/22 06:56:37;;;;;;;28.95;11.93;;;;;;;;;;5071490;28;20479;-72
2024/03/22 06:59:41;;;;;;;33.25;13.55;;;;;;;;;;5072450;28;20044;-72
2024/03/22 07:02:46;;;;;;;32.28;13.00;;;;;;;;;;5071697;28;20056;-72
2024/03/22 07:05:50;;;;;;;30.75;14.70;;;;;;;;;;5072146;28;20060;-72
2024/03/22 07:08:55;;;;;;;27.65;14.50;;;;;;;;;;5072044;28;20047;-71
2024/03/22 07:11:59;;;;;;;23.88;15.07;;;;;;;;;;5072080;28;20056;-73
2024/03/22 07:15:05;;;;;;;38.38;16.40;;;15.10;99.90;;;;;;5070696;28;20047;-73
2024/03/22 07:18:09;;;;;;;41.10;15.70;;;;;;;;;;5072083;28;20051;-73
2024/03/22 07:21:14;;;;;;;31.50;16.15;;;;;;;;;;5071561;28;20684;-73
2024/03/22 07:24:19;;;;;;;31.30;15.27;;;;;;;;;;5070473;28;20044;-73
2024/03/22 07:27:23;;;;;;;20.23;12.60;;;;;;;;;;5071208;28;20067;-74
2024/03/22 07:30:27;;;;;;;41.03;14.30;;;;;;;;;;5071860;28;20499;-73
2024/03/22 07:33:32;;;;;;;21.35;12.70;;;;;;;;;;5071370;28;20039;-73
2024/03/22 07:36:39;;;;;;;29.17;13.85;;;15.60;99.90;;;;;;5073522;28;20051;-73
2024/03/22 07:39:43;;;;;;;21.13;13.35;;;;;;;;;;5071811;28;20067;-73
2024/03/22 07:42:50;;;;;;;41.88;17.85;;;16.10;99.90;;;;;;5071300;28;20047;-73
2024/03/22 07:45:55;;;;;;;20.05;12.50;;;;;;;;;;5071481;28;20067;-73
2024/03/22 07:49:00;;;;;;;25.08;11.95;;;;;;;;;;5071632;28;20047;-73
2024/03/22 07:52:05;;;;;;;18.95;9.45;;;;;;;;;;5071662;28;20389;-73
2024/03/22 07:55:09;;;;;;;15.88;8.13;;;;;;;;;;5071267;28;20029;-73
2024/03/22 07:58:13;;;;;;;16.90;8.50;;;;;;;;;;5071239;28;20334;-73
2024/03/22 08:01:17;;;;;;;10.27;4.75;;;;;;;;;;5058709;28;20043;-72
2024/03/22 08:04:22;;;;;;;7.82;4.82;;;;;;;;;;5071210;28;20045;-72
2024/03/22 08:07:26;;;;;;;9.52;6.05;;;;;;;;;;5071090;28;20049;-72
2024/03/22 08:10:30;;;;;;;7.53;2.90;;;;;;;;;;5071152;28;20049;-71
2024/03/22 08:13:35;;;;;;;5.32;3.30;;;;;;;;;;5071257;28;20040;-72
2024/03/22 08:16:39;;;;;;;4.72;3.40;;;;;;;;;;5070787;28;20036;-73
2024/03/22 08:19:46;;;;;;;8.13;3.38;;;;;;;;;;5070666;28;20041;-72
2024/03/22 08:22:50;;;;;;;6.10;3.05;;;;;;;;;;5070858;28;20357;-73
2024/03/22 08:25:55;;;;;;;12.70;3.33;;;;;;;;;;5070665;28;20082;-72
2024/03/22 08:28:59;;;;;;;8.57;4.00;;;;;;;;;;5070672;28;20041;-72
2024/03/22 08:32:04;;;;;;;10.48;5.00;;;;;;;;;;5070794;28;20354;-73
2024/03/22 08:35:09;;;;;;;10.23;4.85;;;;;;;;;;5069646;28;20047;-73
2024/03/22 08:38:14;;;;;;;7.97;4.93;;;;;;;;;;5070868;28;20043;-73
2024/03/22 08:41:18;;;;;;;10.88;4.97;;;;;;;;;;5070729;28;20037;-73
2024/03/22 08:44:22;;;;;;;9.20;4.47;;;19.10;92.70;;;;;;5069592;28;20028;-73
2024/03/22 08:47:27;;;;;;;11.43;4.50;;;;;;;;;;5070672;28;20543;-73
2024/03/22 08:50:31;;;;;;;8.10;3.85;;;;;;;;;;5070707;28;20036;-73
2024/03/22 08:53:36;;;;;;;6.85;3.33;;;;;;;;;;5070562;28;20045;-73
2024/03/22 08:56:40;;;;;;;5.30;2.90;;;;;;;;;;5070493;28;20036;-73
2024/03/22 08:59:44;;;;;;;10.10;3.30;;;;;;;;;;5070514;28;20040;-73
2024/03/22 09:02:51;;;;;;;8.55;3.10;;;19.30;91.40;;;;;;5070481;28;20040;-73
2024/03/22 09:05:56;;;;;;;8.30;3.17;;;;;;;;;;5070230;28;20515;-72
2024/03/22 09:09:00;;;;;;;10.30;4.63;;;;;;;;;;5070382;28;20041;-73
2024/03/22 09:12:04;;;;;;;10.85;3.88;;;;;;;;;;5070660;28;20047;-72
2024/03/22 09:15:08;;;;;;;10.10;4.10;;;20.10;90.40;;;;;;5073732;28;20404;-72
2024/03/22 09:18:13;;;;;;;5.88;3.67;;;;;;;;;;5074208;28;20043;-72
2024/03/22 09:21:17;;;;;;;4.97;4.00;;;;;;;;;;5074486;28;20040;-73
2024/03/22 09:24:22;;;;;;;9.05;4.95;;;;;;;;;;5074326;28;20044;-72
2024/03/22 09:27:26;;;;;;;12.32;4.95;;;;;;;;;;5073092;28;20048;-73
2024/03/22 09:30:30;;;;;;;8.10;4.80;;;;;;;;;;5073591;28;20057;-71
2024/03/22 09:33:35;;;;;;;14.68;4.97;;;;;;;;;;5073129;28;20048;-71
2024/03/22 09:36:40;;;;;;;14.30;4.50;;;;;;;;;;5073783;28;20032;-71
2024/03/22 09:39:47;;;;;;;6.82;4.10;;;;;;;;;;5073689;28;20055;-71
2024/03/22 09:42:53;;;;;;;10.98;4.60;;;19.70;90.00;;;;;;5073784;28;20044;-72
2024/03/22 09:45:57;;;;;;;12.07;4.95;;;;;;;;;;5073728;28;20052;-69
2024/03/22 09:49:02;;;;;;;6.15;3.85;;;;;;;;;;5073956;28;20036;-71
2024/03/22 09:52:07;;;;;;;5.25;3.17;;;;;;;;;;5073962;28;20033;-72
2024/03/22 09:55:13;;;;;;;6.10;3.38;;;;;;;;;;5073705;28;20033;-72
2024/03/22 09:58:18;;;;;;;11.77;4.07;;;;;;;;;;5073868;28;20044;-72
2024/03/22 10:01:22;;;;;;;11.73;5.05;;;;;;;;;;5072710;28;20338;-72
2024/03/22 10:04:28;;;;;;;11.25;4.15;;;;;;;;;;5072493;28;20142;-71
2024/03/22 10:07:32;;;;;;;6.55;3.90;;;21.20;86.90;;;;;;5073596;28;20507;-71
2024/03/22 10:10:37;;;;;;;8.02;4.18;;;;;;;;;;5073251;28;20044;-73
2024/03/22 10:17:04;;;;;;;4.35;3.80;;;;;;;;;;5072244;28;20044;-72
2024/03/22 10:20:13;;;;;;;6.65;3.60;;;21.50;85.30;;;;;;5072164;28;20369;-72
2024/03/22 10:23:17;;;;;;;4.13;2.88;;;;;;;;;;5073130;28;20040;-71
2024/03/22 10:26:22;;;;;;;7.82;4.10;;;;;;;;;;5071169;28;20128;-70
2024/03/22 10:29:26;;;;;;;4.57;3.30;;;;;;;;;;5072976;28;20040;-73
2024/03/22 10:32:30;;;;;;;5.72;3.45;;;;;;;;;;5072965;28;20044;-73
2024/03/22 10:35:35;;;;;;;14.48;4.00;;;;;;;;;;5072190;28;20036;-72
2024/03/22 10:38:40;;;;;;;4.65;2.95;;;;;;;;;;5072815;28;20033;-72
2024/03/22 10:41:45;;;;;;;5.47;2.97;;;20.40;86.10;;;;;;5072854;28;20374;-72
2024/03/22 10:44:49;;;;;;;22.42;4.63;;;;;;;;;;5072582;28;20047;-70
2024/03/22 10:47:56;;;;;;;21.88;4.47;;;18.10;85.90;;;;;;5072830;28;20052;-72
2024/03/22 10:51:01;;;;;;;10.73;3.28;;;;;;;;;;5072528;28;20055;-72
2024/03/22 10:54:06;;;;;;;23.30;4.00;;;;;;;;;;5072592;28;20057;-71
2024/03/22 10:57:14;;;;;;;8.82;3.30;;;19.70;87.50;;;;;;5071719;28;20036;-72
2024/03/22 11:00:27;;;;;;;6.45;3.33;;;;;;;;;;5072288;28;20047;-71
2024/03/22 11:03:33;;;;;;;5.05;3.20;;;;;;;;;;5072213;28;20377;-70
2024/03/22 11:06:38;;;;;;;8.55;3.13;;;;;;;;;;5071035;28;20052;-72
2024/03/22 11:09:52;;;;;;;5.65;2.70;;;18.60;87.20;;;;;;5072395;28;20378;-71
2024/03/22 11:12:56;;;;;;;5.03;2.97;;;;;;;;;;5072040;28;20051;-73
2024/03/22 11:16:01;;;;;;;7.03;3.10;;;;;;;;;;5071919;28;20033;-71
2024/03/22 11:19:05;;;;;;;4.97;2.58;;;;;;;;;;5071649;28;20374;-69
2024/03/22 11:22:11;;;;;;;5.35;2.75;;;;;;;;;;5071780;28;20037;-68
2024/03/22 11:25:16;;;;;;;6.50;3.30;;;;;;;;;;5071679;28;20044;-71
2024/03/22 11:28:20;;;;;;;6.28;2.75;;;;;;;;;;5071665;28;20045;-70
2024/03/22 11:31:27;;;;;;;12.07;3.40;;;;;;;;;;5071577;28;20028;-72
2024/03/22 11:34:31;;;;;;;5.00;3.08;;;;;;;;;;5071797;28;20040;-72
2024/03/22 11:37:35;;;;;;;9.25;3.20;;;;;;;;;;5071568;28;20053;-71
2024/03/22 11:40:39;;;;;;;7.95;3.40;;;;;;;;;;5071345;28;20191;-70
2024/03/22 11:43:46;;;;;;;6.90;2.60;;;17.30;86.70;;;;;;5071680;28;20045;-72
2024/03/22 11:46:50;;;;;;;14.45;3.17;;;;;;;;;;5071276;28;20056;-73
2024/03/22 11:49:55;;;;;;;9.90;3.20;;;19.80;88.70;;;;;;5069340;28;20047;-69
2024/03/22 11:52:59;;;;;;;11.23;3.17;;;;;;;;;;5068754;28;20158;-70
2024/03/22 11:56:05;;;;;;;5.57;2.80;;;;;;;;;;5058062;28;20469;-67
2024/03/22 11:59:09;;;;;;;7.20;2.80;;;;;;;;;;5070146;28;20480;-68
2024/03/22 12:02:13;;;;;;;20.48;3.25;;;;;;;;;;5070466;28;20373;-70
2024/03/22 12:05:18;;;;;;;10.50;3.30;;;;;;;;;;5070926;28;20059;-69
2024/03/22 12:08:23;;;;;;;13.65;3.35;;;;;;;;;;5070958;28;20051;-69
2024/03/22 12:11:27;;;;;;;8.25;2.80;;;19.30;89.30;;;;;;5071070;28;20057;-67
2024/03/22 12:14:32;;;;;;;9.80;3.20;;;;;;;;;;5070400;28;20051;-68
2024/03/22 12:17:37;;;;;;;7.47;2.80;;;;;;;;;;5069773;28;20044;-68
2024/03/22 12:20:41;;;;;;;4.15;2.92;;;;;;;;;;5070994;28;20374;-69
2024/03/22 12:23:46;;;;;;;5.20;2.60;;;;;;;;;;5070972;28;20036;-69
2024/03/22 12:26:51;;;;;;;7.30;2.60;;;;;;;;;;5070564;28;20057;-68
2024/03/22 12:29:55;;;;;;;4.05;2.90;;;;;;;;;;5070722;28;20041;-68
2024/03/22 12:32:59;;;;;;;11.77;2.90;;;;;;;;;;5070788;28;20040;-69
2024/03/22 12:36:04;;;;;;;6.90;2.55;;;;;;;;;;5070986;28;20032;-69
2024/03/22 12:39:09;;;;;;;5.63;3.13;;;;;;;;;;5071228;28;20044;-69
2024/03/22 12:42:13;;;;;;;3.10;2.75;;;;;;;;;;5070209;28;20132;-69
2024/03/22 12:45:17;;;;;;;5.05;2.88;;;;;;;;;;5070769;28;20040;-70
2024/03/22 12:48:22;;;;;;;6.22;3.42;;;;;;;;;;5070374;28;20044;-69
2024/03/22 12:51:26;;;;;;;4.75;3.15;;;;;;;;;;5058523;28;20037;-69
2024/03/22 12:54:30;;;;;;;7.85;3.55;;;;;;;;;;5070699;28;20036;-69
2024/03/22 12:57:35;;;;;;;17.23;3.92;;;;;;;;;;5070872;28;20385;-70
2024/03/22 13:00:39;;;;;;;5.07;2.95;;;;;;;;;;5070798;28;20048;-69
2024/03/22 13:03:43;;;;;;;5.70;3.13;;;;;;;;;;5070486;28;20037;-69
2024/03/22 13:06:48;;;;;;;6.30;3.30;;;;;;;;;;5070287;28;20350;-69
2024/03/22 13:09:53;;;;;;;6.70;3.20;;;;;;;;;;5070750;28;20036;-69
2024/03/22 13:12:57;;;;;;;9.80;3.40;;;;;;;;;;5070014;28;20040;-69
2024/03/22 13:16:02;;;;;;;7.38;3.10;;;;;;;;;;5070455;28;20037;-69
2024/03/22 13:19:12;;;;;;;5.80;3.20;;;;;;;;;;5070337;28;20036;-69
2024/03/22 13:22:18;;;;;;;5.32;3.40;;;;;;;;;;5069581;28;20044;-69
2024/03/22 13:25:25;;;;;;;3.55;2.55;;;;;;;;;;5069926;28;20049;-69
2024/03/22 13:28:30;;;;;;;8.35;3.22;;;;;;;;;;5070357;28;20048;-69
2024/03/22 13:31:34;;;;;;;3.45;2.80;;;;;;;;;;5069125;28;20028;-69
2024/03/22 13:34:39;;;;;;;6.35;2.95;;;;;;;;;;5070181;28;20036;-69
2024/03/22 13:37:43;;;;;;;4.75;2.85;;;;;;;;;;5070265;28;20045;-69
2024/03/22 13:40:54;;;;;;;8.88;3.17;;;19.30;84.10;;;;;;5070356;28;20037;-68
2024/03/22 13:44:03;;;;;;;8.75;5.78;;;;;;;;;;5069969;28;20040;-68
2024/03/22 13:47:07;;;;;;;4.95;3.25;;;;;;;;;;5070005;28;20049;-68
2024/03/22 13:50:12;;;;;;;4.40;2.97;;;;;;;;;;5069811;28;20152;-68
2024/03/22 13:53:16;;;;;;;4.43;3.20;;;19.50;83.80;;;;;;5068455;28;20484;-68
2024/03/22 13:56:21;;;;;;;5.38;3.47;;;;;;;;;;5069329;28;20039;-68
2024/03/22 13:59:25;;;;;;;5.32;3.30;;;;;;;;;;5070576;28;20044;-69
2024/03/22 14:02:31;;;;;;;5.97;3.25;;;;;;;;;;5073280;28;20037;-69
2024/03/22 14:05:36;;;;;;;4.63;3.33;;;;;;;;;;5073005;28;20032;-68
2024/03/22 14:08:40;;;;;;;7.30;3.63;;;;;;;;;;5073189;28;20037;-69
2024/03/22 14:11:46;;;;;;;9.52;3.70;;;;;;;;;;5073456;28;20049;-69
2024/03/22 14:14:51;;;;;;;8.77;4.47;;;;;;;;;;5073066;28;20032;-68
2024/03/22 14:17:56;;;;;;;7.18;3.95;;;;;;;;;;5073188;28;20040;-68
2024/03/22 14:21:00;;;;;;;5.45;3.88;;;;;;;;;;5073384;28;20037;-68
2024/03/22 14:24:04;;;;;;;5.07;3.97;;;;;;;;;;5073264;28;20040;-70
2024/03/22 14:27:09;;;;;;;18.38;5.40;;;;;;;;;;5072798;28;20049;-69
2024/03/22 14:30:14;;;;;;;6.47;3.70;;;;;;;;;;5072885;28;20354;-68
2024/03/22 14:33:18;;;;;;;8.32;4.78;;;;;;;;;;5073110;28;20036;-67
2024/03/22 14:36:23;;;;;;;7.03;4.18;;;;;;;;;;5072595;28;20485;-68
2024/03/22 14:39:27;;;;;;;8.00;4.30;;;;;;;;;;5072824;28;20044;-68
2024/03/22 14:42:32;;;;;;;8.13;4.65;;;;;;;;;;5072633;28;20036;-68
2024/03/22 14:45:36;;;;;;;6.88;4.10;;;;;;;;;;5072234;28;20041;-68
2024/03/22 14:48:40;;;;;;;7.47;4.40;;;;;;;;;;5072871;28;20040;-68
2024/03/22 14:51:44;;;;;;;12.85;4.85;;;;;;;;;;5072511;28;20044;-69
2024/03/22 14:54:51;;;;;;;8.90;4.82;;;;;;;;;;5072242;28;20055;-68
2024/03/22 14:57:56;;;;;;;7.50;4.50;;;;;;;;;;5072378;28;20452;-68
2024/03/22 15:01:02;;;;;;;10.20;4.93;;;19.30;85.80;;;;;;5072236;28;20037;-67
2024/03/22 15:04:06;;;;;;;9.05;4.45;;;;;;;;;;5072114;28;20040;-68
2024/03/22 15:07:10;;;;;;;6.72;4.63;;;;;;;;;;5072140;28;20508;-68
2024/03/22 15:10:14;;;;;;;9.85;4.95;;;;;;;;;;5071888;28;20036;-71
2024/03/22 15:13:20;;;;;;;8.38;4.70;;;;;;;;;;5070779;28;20386;-68
2024/03/22 15:16:28;;;;;;;6.45;4.57;;;;;;;;;;5070478;28;20041;-68
2024/03/22 15:19:32;;;;;;;10.73;5.18;;;;;;;;;;5071090;28;20048;-68
2024/03/22 15:22:37;;;;;;;7.10;4.45;;;;;;;;;;5071251;28;20051;-68
2024/03/22 15:25:44;;;;;;;10.70;4.65;;;19.30;86.60;;;;;;5070719;28;20048;-68
2024/03/22 15:28:49;;;;;;;8.95;4.88;;;;;;;;;;5071168;28;20052;-68
2024/03/22 15:31:53;;;;;;;10.93;4.20;;;;;;;;;;5071310;28;20033;-68
2024/03/22 15:34:58;;;;;;;8.95;5.13;;;;;;;;;;5071139;28;20041;-68
2024/03/22 15:38:05;;;;;;;7.75;5.28;;;;;;;;;;5071628;28;20341;-68
2024/03/22 15:41:10;;;;;;;13.40;5.60;;;;;;;;;;5071297;28;20041;-68
2024/03/22 15:44:14;;;;;;;9.90;4.85;;;;;;;;;;5071342;28;20044;-68
2024/03/22 15:47:18;;;;;;;10.38;5.00;;;;;;;;;;5071106;28;20056;-68
2024/03/22 15:50:23;;;;;;;10.95;5.82;;;;;;;;;;5070991;28;20511;-68
2024/03/22 15:53:27;;;;;;;7.55;4.78;;;;;;;;;;5071204;28;20392;-68
2024/03/22 15:56:32;;;;;;;11.50;4.90;;;;;;;;;;5071512;28;20040;-68
2024/03/22 15:59:36;;;;;;;5.38;4.03;;;;;;;;;;5071125;28;20051;-68
2024/03/22 16:02:41;;;;;;;6.75;4.68;;;;;;;;;;5070894;28;20040;-68
2024/03/22 16:05:49;;;;;;;9.45;5.78;;;;;;;;;;5070844;28;20476;-68
2024/03/22 16:08:55;;;;;;;9.65;4.97;;;;;;;;;;5070965;28;20044;-68
2024/03/22 16:11:59;;;;;;;10.48;5.57;;;;;;;;;;5071130;28;20040;-68
2024/03/22 16:15:04;;;;;;;9.63;5.03;;;;;;;;;;5070678;28;20036;-68
2024/03/22 16:18:09;;;;;;;8.23;4.70;;;;;;;;;;5070834;28;20044;-68
2024/03/22 16:21:14;;;;;;;8.88;4.57;;;;;;;;;;5070787;28;20028;-67
2024/03/22 16:24:19;;;;;;;11.50;5.43;;;;;;;;;;5069648;28;20488;-68
2024/03/22 16:27:23;;;;;;;6.22;4.55;;;;;;;;;;5069632;28;20053;-67
2024/03/22 16:30:28;;;;;;;8.52;4.90;;;;;;;;;;5070541;28;20614;-67
2024/03/22 16:33:32;;;;;;;17.50;5.82;;;;;;;;;;5070863;28;20040;-67
2024/03/22 16:36:37;;;;;;;12.73;6.32;;;;;;;;;;5070348;28;20028;-67
2024/03/22 16:39:41;;;;;;;10.07;5.25;;;;;;;;;;5069617;28;20048;-67
2024/03/22 16:42:48;;;;;;;9.52;5.43;;;18.90;84.60;;;;;;5070588;28;20049;-67
2024/03/22 16:45:53;;;;;;;9.32;5.15;;;;;;;;;;5070504;28;20067;-67
2024/03/22 16:48:57;;;;;;;7.45;5.60;;;;;;;;;;5070667;28;20040;-67
2024/03/22 16:52:02;;;;;;;8.80;5.05;;;;;;;;;;5070678;28;20028;-68
2024/03/22 16:55:11;;;;;;;15.10;6.13;;;;;;;;;;5069365;28;20044;-67
2024/03/22 16:58:15;;;;;;;13.25;7.47;;;;;;;;;;5070668;28;20053;-67
2024/03/22 17:01:19;;;;;;;11.43;5.75;;;;;;;;;;5070272;28;20047;-67
2024/03/22 17:04:24;;;;;;;10.60;5.95;;;18.40;85.00;;;;;;5070263;28;20101;-67
2024/03/22 17:07:29;;;;;;;17.90;8.13;;;;;;;;;;5069802;28;20052;-67
2024/03/22 17:10:33;;;;;;;8.73;6.28;;;;;;;;;;5069439;28;20032;-68
2024/03/22 17:13:37;;;;;;;10.48;5.25;;;;;;;;;;5069989;28;20044;-69
2024/03/22 17:16:42;;;;;;;10.10;6.22;;;;;;;;;;5070250;28;20496;-68
2024/03/22 17:19:46;;;;;;;15.63;5.88;;;;;;;;;;5069905;28;20040;-70
2024/03/22 17:22:51;;;;;;;10.10;5.93;;;;;;;;;;5070078;28;20045;-68
2024/03/22 17:26:02;;;;;;;8.75;5.47;;;18.70;86.40;;;;;;5069456;28;20199;-70
2024/03/22 17:29:06;;;;;;;9.63;5.28;;;;;;;;;;5069896;28;20051;-70
2024/03/22 17:32:10;;;;;;;10.48;5.50;;;;;;;;;;5070193;28;20452;-70
2024/03/22 17:35:15;;;;;;;9.63;5.47;;;;;;;;;;5071915;28;20048;-69
2024/03/22 17:38:20;;;;;;;10.18;6.47;;;;;;;;;;5073296;28;20037;-70
2024/03/22 17:41:26;;;;;;;16.10;7.05;;;;;;;;;;5073972;28;20518;-71
2024/03/22 17:44:30;;;;;;;11.93;7.88;;;;;;;;;;5073526;28;20116;-71
2024/03/22 17:47:34;;;;;;;17.10;8.05;;;;;;;;;;5073402;28;20040;-72
2024/03/22 17:50:38;;;;;;;16.05;7.95;;;;;;;;;;5073495;28;20515;-72
2024/03/22 17:53:43;;;;;;;17.90;8.95;;;;;;;;;;5072518;28;20044;-71